Home > Products > Valid Products > MTR

000
SAUS42 KCHS 271157
MTRNBC
METAR KNBC 271156Z 05005KT 10SM FEW250 22/18 A3003 RMK AO2 SLP171
T02170178 10228 20200 53014





000
SAUS42 KCHS 271057
MTRNBC
METAR KNBC 271056Z 05006KT 10SM FEW250 20/18 A3002 RMK AO2 SLP166
T02000178





000
SAUS42 KCHS 270957
MTRNBC
METAR KNBC 270956Z AUTO 06006KT 10SM CLR 20/18 A3000 RMK AO2 SLP159
T02000178





000
SAUS42 KCHS 270857
MTRNBC
METAR KNBC 270856Z AUTO 05005KT 10SM CLR 21/18 A2999 RMK AO2 SLP157
T02110178 56007





000
SAUS42 KCHS 270757
MTRNBC
METAR KNBC 270756Z AUTO 07006KT 10SM CLR 22/18 A2999 RMK AO2 SLP157
T02170183





000
SAUS42 KCHS 270657
MTRNBC
METAR KNBC 270656Z AUTO 06005KT 10SM CLR 22/18 A3001 RMK AO2 SLP162
T02220183





000
SAUS42 KCHS 270557
MTRNBC
METAR KNBC 270556Z AUTO 10004KT 10SM CLR 23/18 A3002 RMK AO2 SLP164
T02280183 10278 20222 58005





000
SAUS42 KCHS 270457
MTRNBC
METAR KNBC 270456Z AUTO 08003KT 10SM CLR 23/18 A3002 RMK AO2 SLP167
T02280178 403220222





000
SAUS42 KCHS 270357
MTRNBC
METAR KNBC 270356Z AUTO 07005KT 10SM CLR 23/18 A3003 RMK AO2 SLP169
T02280178





000
SAUS42 KCHS 270257
MTRNBC
METAR KNBC 270256Z AUTO 08004KT 10SM CLR 24/18 A3003 RMK AO2 SLP169
T02390178 51006





000
SAUS42 KCHS 270157
MTRNBC
METAR KNBC 270156Z 07003KT 10SM CLR 25/18 A3003 RMK AO2 SLP168
T02500178





000
SAUS42 KCHS 270057
MTRNBC
METAR KNBC 270056Z 00000KT 10SM FEW030 SCT250 26/19 A3002 RMK AO2
SLP167 T02560194





000
SAUS42 KCHS 262357
MTRNBC
METAR KNBC 262356Z 11003KT 10SM FEW030 SCT250 28/17 A3001 RMK AO2
SLP163 T02780167 10322 20272 53002





000
SAUS42 KCHS 262257
MTRNBC
METAR KNBC 262256Z AUTO 08008KT 10SM FEW030 BKN250 29/16 A3001 RMK
AO2 SLP161 T02940156





000
SAUS42 KCHS 262157
MTRNBC
METAR KNBC 262156Z 09007KT 10SM FEW050 BKN250 31/16 A3001 RMK AO2
SLP161 T03060156





000
SAUS42 KCHS 262057
MTRNBC
METAR KNBC 262056Z 08008KT 10SM SCT050 BKN250 31/17 A3001 RMK AO2
SLP161 T03110167 56012





000
SAUS42 KCHS 261957
MTRNBC
METAR KNBC 261956Z 08011KT 10SM SCT050 BKN250 32/18 A3001 RMK AO2
SLP163 T03170178





000
SAUS42 KCHS 261857
MTRNBC
METAR KNBC 261856Z 09011KT 10SM SCT049 BKN250 32/17 A3003 RMK AO2
SLP168 T03170172





000
SAUS42 KCHS 261757
MTRNBC
METAR KNBC 261756Z 09010KT 10SM FEW040 SCT090 31/17 A3004 RMK AO2
SLP173 T03110172 10311 20228 58006





000
SAUS42 KCHS 261657
MTRNBC
METAR KNBC 261656Z 04009KT 10SM FEW040 SCT090 SCT250 31/18 A3005 RMK
AO2 SLP176 T03060178





000
SAUS42 KCHS 261557
MTRNBC
METAR KNBC 261556Z 08011KT 10SM SCT090 SCT250 29/18 A3006 RMK AO2
SLP180 T02940183





000
SAUS42 KCHS 261457
MTRNBC
METAR KNBC 261456Z 05009KT 10SM SCT080 SCT250 28/18 A3006 RMK AO2
SLP179 T02830183 50007





000
SAUS42 KCHS 261357
MTRNBC
METAR KNBC 261356Z 07010KT 10SM FEW090 SCT250 26/18 A3006 RMK AO2
SLP179 T02610183





000
SAUS42 KCHS 261257
MTRNBC
METAR KNBC 261256Z 08009KT 10SM FEW030 FEW090 SCT250 24/18 A3004 RMK
AO2 SLP174 T02440178





000
SAUS42 KCHS 261157
MTRNBC
METAR KNBC 261156Z 08009KT 10SM FEW030 FEW090 SCT250 23/18 A3004 RMK
AO2 SLP172 T02280178 10233 20222 51011





000
SAUS42 KCHS 261057
MTRNBC
METAR KNBC 261056Z 08009KT 10SM FEW030 FEW090 22/18 A3003 RMK AO2
SLP169 FIRST T02220178





000
SAUS42 KCHS 261033
MTRNBC
SPECI KNBC 261032Z 08008KT 10SM FEW090 22/18 A3002 RMK AO2 FIRST
T02220183





000
SAUS42 KCHS 260957
MTRNBC
METAR KNBC 260956Z AUTO 08008KT 10SM BKN090 23/18 A3002 RMK AO2
SLP166 T02280183 $





000
SAUS42 KCHS 260857
MTRNBC
METAR KNBC 260856Z AUTO 09009KT 10SM FEW055 FEW080 FEW095 23/19
A3000 RMK AO2 SLP161 T02280194 56008 $





000
SAUS42 KCHS 260757
MTRNBC
METAR KNBC 260756Z AUTO 09008KT 10SM FEW047 SCT060 BKN075 23/20
A3001 RMK AO2 SLP162 T02330200 $





000
SAUS42 KCHS 260657
MTRNBC
METAR KNBC 260656Z AUTO 08010KT 10SM SCT060 BKN080 23/20 A3002 RMK
AO2 SLP166 T02330200 $





000
SAUS42 KCHS 260557
MTRNBC
METAR KNBC 260556Z AUTO 08010KT 10SM CLR 23/20 A3003 RMK AO2 SLP169
T02330200 10261 20233 50005 $





000
SAUS42 KCHS 260457
MTRNBC
METAR KNBC 260456Z AUTO 08010KT 10SM BKN070 24/20 A3003 RMK AO2
SLP170 T02390200 403000200 $





000
SAUS42 KCHS 260357
MTRNBC
METAR KNBC 260356Z AUTO 08009KT 10SM BKN050 24/21 A3003 RMK AO2
SLP168 T02440206 $





000
SAUS42 KCHS 260257
MTRNBC
METAR KNBC 260256Z 08010KT 10SM CLR 24/21 A3002 RMK AO2 SLP164 LAST
T02440206 53012 $





000
SAUS42 KCHS 260157
MTRNBC
METAR KNBC 260156Z 09009KT 10SM CLR 25/20 A3000 RMK AO2 SLP159
T02500200 $





000
SAUS42 KCHS 260057
MTRNBC
METAR KNBC 260056Z 08011KT 10SM FEW100 FEW250 26/20 A2999 RMK AO2
SLP154 T02560200 $





000
SAUS42 KCHS 252357
MTRNBC
METAR KNBC 252356Z 07008KT 10SM FEW030 SCT250 26/19 A2998 RMK AO2
SLP152 T02610194 10300 20261 52003 $





000
SAUS42 KCHS 252257
MTRNBC
METAR KNBC 252256Z 07010KT 10SM BKN044 28/18 A2998 RMK AO2 SLP151
T02780183 $





000
SAUS42 KCHS 252157
MTRNBC
METAR KNBC 252156Z 08009KT 10SM BKN047 28/18 A2998 RMK AO2 SLP151
T02830183 $





000
SAUS42 KCHS 252057
MTRNBC
METAR KNBC 252056Z 06010KT 10SM BKN045 29/18 A2997 RMK AO2 SLP150
T02890183 56012 $





000
SAUS42 KCHS 251957
MTRNBC
METAR KNBC 251956Z 08010KT 10SM BKN044 30/18 A2998 RMK AO2 SLP152
T03000183 $





000
SAUS42 KCHS 251857
MTRNBC
METAR KNBC 251856Z 08008KT 10SM BKN041 29/18 A3000 RMK AO2 SLP158
T02890178 $





000
SAUS42 KCHS 251757
MTRNBC
METAR KNBC 251756Z AUTO 10SM BKN038 BKN250 29/18 A3001 RMK AO2
SLP162 T02940178 10294 20206 58004 PWINO $





000
SAUS42 KCHS 251657
MTRNBC
METAR KNBC 251656Z 09008KT 10SM SCT036 SCT250 28/17 A3001 RMK AO2
SLP163 T02830167 $





000
SAUS42 KCHS 251557
MTRNBC
METAR KNBC 251556Z 09011KT 10SM FEW045 SCT250 27/17 A3002 RMK AO2
SLP165 T02670167 $





000
SAUS42 KCHS 251457
MTRNBC
METAR KNBC 251456Z 08011KT 10SM FEW045 SCT250 26/16 A3002 RMK AO2
SLP166 T02560161 53002 $





000
SAUS42 KCHS 251357
MTRNBC
METAR KNBC 251356Z 08013KT 10SM FEW250 24/16 A3001 RMK AO2 SLP164
T02390161 $





000
SAUS42 KCHS 251257
MTRNBC
METAR KNBC 251256Z 08012G19KT 10SM FEW250 22/16 A3001 RMK AO2 SLP163
T02220161 $





000
SAUS42 KCHS 251157
MTRNBC
METAR KNBC 251156Z 06013KT 10SM SCT250 21/17 A3001 RMK AO2 SLP163
T02060167 10233 20200 51010 $





000
SAUS42 KCHS 251057
MTRNBC
METAR KNBC 251056Z 05010KT 10SM SCT250 20/17 A3001 RMK AO2 SLP161
FIRST T02000167 $





000
SAUS42 KCHS 250957
MTRNBC
METAR KNBC 250956Z AUTO 06014KT 10SM CLR 21/16 A2999 RMK AO2 SLP157
T02060161 $





000
SAUS42 KCHS 250857
MTRNBC
METAR KNBC 250856Z AUTO 07013KT 10SM CLR 21/16 A2998 RMK AO2 SLP153
T02110161 56006 $





000
SAUS42 KCHS 250757
MTRNBC
METAR KNBC 250756Z AUTO 08011KT 10SM CLR 22/16 A2998 RMK AO2 SLP153
T02170161 $





000
SAUS42 KCHS 250657
MTRNBC
METAR KNBC 250656Z AUTO 08009KT 10SM CLR 22/17 A2999 RMK AO2 SLP155
T02220167 $





000
SAUS42 KCHS 250557
MTRNBC
METAR KNBC 250556Z AUTO 09012G18KT 10SM CLR 23/18 A3000 RMK AO2
SLP159 T02330178 10278 20233 50006 $





000
SAUS42 KCHS 250457
MTRNBC
METAR KNBC 250456Z AUTO 08011KT 10SM CLR 24/18 A3000 RMK AO2 SLP159
T02440183 403220244 $





000
SAUS42 KCHS 250357
MTRNBC
METAR KNBC 250356Z AUTO 09008KT 10SM CLR 26/19 A2999 RMK AO2 SLP155
T02560189 $





000
SAUS42 KCHS 250257
MTRNBC
METAR KNBC 250256Z AUTO 09008KT 10SM CLR 26/20 A2998 RMK AO2 SLP153
T02560200 51022 $





000
SAUS42 KCHS 250157
MTRNBC
METAR KNBC 250156Z 10009G17KT 10SM SCT040 BKN050 BKN200 27/20 A2996
RMK AO2 SLP147 LAST T02720200 $





000
SAUS42 KCHS 250057
MTRNBC
METAR KNBC 250056Z 09008KT 10SM BKN050 BKN200 28/21 A2994 RMK AO2
SLP138 FIRST T02780206 $





000
SAUS42 KCHS 250012
MTRNBC
SPECI KNBC 250011Z 09007KT 10SM BKN050 BKN200 28/21 A2992 RMK AO2
FIRST T02780206 $





000
SAUS42 KCHS 242357
MTRNBC
METAR KNBC 242356Z AUTO 09008KT 10SM CLR 28/21 A2992 RMK AO2 SLP131
T02780206 10322 20278 50000 $





000
SAUS42 KCHS 242257
MTRNBC
METAR KNBC 242256Z AUTO 09012G17KT 10SM SCT070 29/21 A2992 RMK AO2
SLP132 T02940206 $





000
SAUS42 KCHS 242157
MTRNBC
METAR KNBC 242156Z AUTO 09013KT 10SM FEW038 BKN070 31/21 A2991 RMK
AO2 SLP130 T03060206 $





000
SAUS42 KCHS 242057
MTRNBC
METAR KNBC 242056Z AUTO 10011KT 10SM SCT041 BKN070 30/20 A2992 RMK
AO2 SLP130 T03000200 56007 $





000
SAUS42 KCHS 241957
MTRNBC
METAR KNBC 241956Z AUTO 09007KT 10SM SCT042 BKN060 30/21 A2992 RMK
AO2 SLP133 T03000206 $





000
SAUS42 KCHS 241857
MTRNBC
METAR KNBC 241856Z AUTO 09012KT 10SM SCT038 BKN047 31/21 A2993 RMK
AO2 SLP135 T03110211 $





000
SAUS42 KCHS 241757
MTRNBC
METAR KNBC 241756Z AUTO 08011G15KT 10SM BKN034 31/21 A2994 RMK AO2
SLP138 T03110211 10317 20256 50000 $





000
SAUS42 KCHS 241658
MTRNBC
METAR KNBC 241656Z AUTO 08012KT 10SM BKN031 30/22 A2995 RMK AO2
SLP141 T03000217 $





000
SAUS42 KCHS 241650
MTRNBC
SPECI KNBC 241649Z AUTO 09009KT 10SM BKN031 30/21 A2995 RMK AO2
T03000211 $





000
SAUS42 KCHS 241638
MTRNBC
SPECI KNBC 241637Z AUTO 08011KT 10SM BKN029 30/22 A2994 RMK AO2
T03000217 $





000
SAUS42 KCHS 241557
MTRNBC
METAR KNBC 241556Z AUTO 08012KT 10SM FEW027 30/22 A2994 RMK AO2
SLP140 T03000217 $





000
SAUS42 KCHS 241540
MTRNBC
SPECI KNBC 241538Z AUTO 08012KT 10SM SCT026 29/22 A2994 RMK AO2
T02940217 $





000
SAUS42 KCHS 241531
MTRNBC
SPECI KNBC 241530Z AUTO 08012KT 10SM BKN025 29/22 A2994 RMK AO2
T02940217 $





000
SAUS42 KCHS 241457
MTRNBC
METAR KNBC 241456Z AUTO 10010G20KT 10SM FEW023 29/22 A2994 RMK AO2
SLP137 T02890217 51011 $





000
SAUS42 KCHS 241357
MTRNBC
METAR KNBC 241356Z AUTO 09011KT 10SM FEW015 29/23 A2992 RMK AO2
SLP132 T02890228 $





000
SAUS42 KCHS 241339
MTRNBC
SPECI KNBC 241337Z AUTO 09011KT 10SM SCT014 28/23 A2992 RMK AO2
T02830233 $





    US Dept of Commerce
    National Oceanic and Atmospheric Administration
    National Weather Service
    1325 East West Highway
    Silver Spring, MD 20910
    Page Author: NWS Internet Services Team
Disclaimer
Information Quality
Credits
Glossary
Privacy Policy
Freedom of Information Act (FOIA)
About Us
Career Opportunities